Smooth Rock Falls, Canada
Current Conditions -  °F | °C
As of 9:00 PM on Friday 28 Nov 2014 (Local Time) from CYYU Reporting Station
Light Snow Light Snow  
Wind Chill: -2°   Ceiling: 3000
Heat Index: -2°   Visibility: 5mi
Dew Point: -8°   Wind: 2mph
Humidity: 78%   Direction: 140°SE
Pressure: 30.04"   Gusts: NA
Location:  49.28°N, 81.63°W
Report Text: CYYU 290200Z 14002KT 5SM -SN BKN030 M19/M22 A3004 RMK SC5 SLP200
Loading
Personal Weather Stations






























Interactive Weather Map New forecast layout! Learn more

10-Day Weather Forecast

Advertisements
Track Severe Weather on mobile